Time;durP1;ratioP1;P1;durP2;ratioP2;P2;SDS_P1;SDS_P2;PMS_P1;PMS_P2;Temp;Humidity;BMP_temperature;BMP_pressure;BME280_temperature;BME280_humidity;BME280_pressure;Samples;Min_cycle;Max_cycle;Signal;HPM_P1;HPM_P2
2021/11/14 00:04:26;;;;;;;30.07;18.20;;;;;10.40;101152.00;;;;10421680;28;20752;-80
2021/11/14 00:09:29;;;;;;;29.30;19.00;;;;;10.40;101149.00;;;;10412460;28;20205;-80
2021/11/14 00:14:31;;;;;;;28.73;18.40;;;;;10.40;101154.00;;;;10406089;28;20256;-80
2021/11/14 00:19:33;;;;;;;29.33;18.37;;;;;10.40;101160.00;;;;10406542;28;20198;-79
2021/11/14 00:24:35;;;;;;;35.43;19.43;;;;;10.40;101164.00;;;;10395215;28;20206;-80
2021/11/14 00:29:37;;;;;;;30.63;19.33;;;;;10.40;101169.00;;;;10389291;28;20227;-80
2021/11/14 00:34:39;;;;;;;32.43;19.70;;;;;10.40;101164.00;;;;10422200;28;20198;-80
2021/11/14 00:39:42;;;;;;;38.00;20.13;;;;;10.40;101164.00;;;;10409352;28;20198;-80
2021/11/14 00:44:44;;;;;;;33.60;19.90;;;;;10.40;101164.00;;;;10429113;28;20242;-80
2021/11/14 00:49:47;;;;;;;26.60;19.47;;;;;10.40;101164.00;;;;10396795;28;20198;-81
2021/11/14 00:54:49;;;;;;;34.40;21.77;;;;;10.30;101170.00;;;;10411183;28;20198;-82
2021/11/14 00:59:50;;;;;;;31.53;23.10;;;;;10.30;101170.00;;;;10429052;28;20201;-83
2021/11/14 01:04:52;;;;;;;31.23;21.80;;;;;10.30;101177.00;;;;10428402;28;20221;-81
2021/11/14 01:09:54;;;;;;;31.63;21.57;;;;;10.30;101177.00;;;;10428209;28;20194;-82
2021/11/14 01:14:56;;;;;;;31.67;21.13;;;;;10.20;101169.00;;;;10384851;28;20245;-81
2021/11/14 01:19:59;;;;;;;34.90;22.20;;;;;10.20;101177.00;;;;10411997;28;20625;-81
2021/11/14 01:25:03;;;;;;;35.07;23.23;;;;;10.20;101185.00;;;;10416887;28;20214;-81
2021/11/14 01:30:10;;;;;;;38.53;24.50;;;;;10.20;101190.00;;;;10423928;28;20234;-81
2021/11/14 01:35:13;;;;;;;39.90;26.10;;;;;10.20;101188.00;;;;10426897;28;20202;-81
2021/11/14 01:40:26;;;;;;;42.13;25.90;;;;;10.20;101196.00;;;;10426691;28;20225;-81
2021/11/14 01:45:29;;;;;;;48.60;25.97;;;;;10.20;101205.00;;;;10416963;28;20218;-81
2021/11/14 01:50:31;;;;;;;41.50;27.07;;;;;10.30;101208.00;;;;10425925;28;20230;-81
2021/11/14 01:55:35;;;;;;;49.97;28.60;;;;;10.30;101206.00;;;;10410446;28;20257;-81
2021/11/14 02:00:45;;;;;;;48.40;28.10;;;;;10.30;101199.00;;;;10398734;28;20190;-79
2021/11/14 02:05:47;;;;;;;45.10;27.47;;;;;10.30;101210.00;;;;10425296;28;20214;-79
2021/11/14 02:10:50;;;;;;;50.57;29.17;;;;;10.30;101217.00;;;;10407749;28;20210;-79
2021/11/14 02:15:52;;;;;;;55.63;31.10;;;;;10.30;101215.00;;;;10425826;28;20199;-79
2021/11/14 02:20:55;;;;;;;51.63;29.63;;;;;10.30;101215.00;;;;10425025;28;20195;-79
2021/11/14 02:25:57;;;;;;;52.87;29.87;;;;;10.30;101229.00;;;;10425102;28;20225;-79
2021/11/14 02:31:00;;;;;;;56.73;31.63;;;;;10.30;101231.00;;;;10425005;28;20264;-80
2021/11/14 02:36:07;;;;;;;53.90;29.87;;;;;10.30;101234.00;;;;10389112;28;20199;-79
2021/11/14 02:41:11;;;;;;;53.50;32.23;;;;;10.30;101246.00;;;;10424274;28;20191;-79
2021/11/14 02:46:14;;;;;;;57.57;31.40;;;;;10.40;101252.00;;;;10407661;28;20297;-80
2021/11/14 02:51:19;;;;;;;66.23;31.07;;;;;10.40;101248.00;;;;10408392;28;20202;-79
2021/11/14 02:56:21;;;;;;;71.87;36.50;;;;;10.40;101256.00;;;;10424235;28;20209;-80
2021/11/14 03:01:30;;;;;;;73.33;35.77;;;;;10.40;101258.00;;;;10423334;28;20194;-79
2021/11/14 03:06:32;;;;;;;87.63;38.33;;;;;10.40;101260.00;;;;10407157;28;20224;-79
2021/11/14 03:11:35;;;;;;;84.93;39.47;;;;;10.40;101271.00;;;;10412107;28;20202;-79
2021/11/14 03:16:56;;;;;;;96.57;41.77;;;;;10.40;101273.00;;;;10413494;28;20658;-80
2021/11/14 03:21:58;;;;;;;90.70;42.87;;;;;10.40;101284.00;;;;10411032;28;20201;-79
2021/11/14 03:27:00;;;;;;;98.23;42.67;;;;;10.40;101272.00;;;;10402302;28;20214;-79
2021/11/14 03:32:02;;;;;;;101.07;46.57;;;;;10.40;101269.00;;;;10409857;28;20235;-80
2021/11/14 03:37:13;;;;;;;105.63;45.87;;;;;10.50;101286.00;;;;10421910;28;20194;-79
2021/11/14 03:42:15;;;;;;;102.87;44.57;;;;;10.40;101288.00;;;;10438756;28;20213;-79
2021/11/14 03:47:17;;;;;;;108.33;45.97;;;;;10.40;101282.00;;;;10414949;28;20677;-80
2021/11/14 03:52:20;;;;;;;108.40;46.37;;;;;10.40;101294.00;;;;10406644;28;20608;-79
2021/11/14 03:57:22;;;;;;;115.03;46.77;;;;;10.40;101302.00;;;;10407117;28;20194;-79
2021/11/14 04:02:25;;;;;;;101.87;43.53;;;;;10.40;101300.00;;;;10413845;28;20202;-80
2021/11/14 04:07:28;;;;;;;108.77;44.50;;;;;10.30;101294.00;;;;10406403;28;20206;-80
2021/11/14 04:12:30;;;;;;;105.57;44.40;;;;;10.30;101312.00;;;;10428061;28;20195;-80
2021/11/14 04:17:34;;;;;;;108.50;44.83;;;;;10.30;101315.00;;;;10429932;28;20199;-79
2021/11/14 04:22:36;;;;;;;113.93;46.07;;;;;10.30;101319.00;;;;10405988;28;20673;-80
2021/11/14 04:27:38;;;;;;;116.97;47.30;;;;;10.30;101317.00;;;;10421640;28;20266;-79
2021/11/14 04:32:41;;;;;;;122.53;48.47;;;;;10.30;101326.00;;;;10400077;28;20293;-80
2021/11/14 04:37:43;;;;;;;117.20;49.57;;;;;10.20;101322.00;;;;10428860;28;20199;-79
2021/11/14 04:42:45;;;;;;;114.80;45.93;;;;;10.20;101328.00;;;;10429637;28;20539;-79
2021/11/14 04:47:47;;;;;;;117.57;45.10;;;;;10.20;101340.00;;;;10429572;28;20707;-79
2021/11/14 04:52:51;;;;;;;115.07;47.33;;;;;10.20;101340.00;;;;10412984;28;20222;-80
2021/11/14 04:57:53;;;;;;;100.87;45.13;;;;;10.20;101342.00;;;;10404431;28;20199;-79
2021/11/14 05:02:55;;;;;;;118.00;46.03;;;;;10.10;101339.00;;;;10423432;28;20202;-79
2021/11/14 05:07:57;;;;;;;99.43;45.43;;;;;10.10;101351.00;;;;10411371;28;20217;-79
2021/11/14 05:12:59;;;;;;;116.37;47.43;;;;;10.10;101352.00;;;;10412173;28;20257;-79
2021/11/14 05:18:03;;;;;;;108.77;45.70;;;;;10.10;101358.00;;;;10427958;28;20196;-79
2021/11/14 05:23:08;;;;;;;101.80;42.23;;;;;10.00;101358.00;;;;10426686;28;20206;-80
2021/11/14 05:28:11;;;;;;;91.80;41.57;;;;;10.00;101351.00;;;;10411692;28;20245;-79
2021/11/14 05:33:13;;;;;;;100.73;41.93;;;;;10.00;101358.00;;;;10411191;28;20230;-79
2021/11/14 05:38:16;;;;;;;94.13;40.27;;;;;10.00;101349.00;;;;10434536;28;20662;-79
2021/11/14 05:43:18;;;;;;;90.00;41.47;;;;;9.90;101361.00;;;;10412373;28;20248;-79
2021/11/14 05:48:20;;;;;;;102.77;41.33;;;;;9.90;101368.00;;;;10426842;28;20214;-79
2021/11/14 05:53:22;;;;;;;96.43;41.57;;;;;9.90;101363.00;;;;10411818;28;20669;-79
2021/11/14 05:58:33;;;;;;;95.93;41.67;;;;;9.90;101369.00;;;;10401980;28;20211;-79
2021/11/14 06:04:16;;;;;;;97.87;40.10;;;;;9.90;101377.00;;;;10426015;28;20657;-79
2021/11/14 06:09:04;;;;;;;89.30;38.13;;;;;9.80;101394.00;;;;10419153;28;20252;-79
2021/11/14 06:14:06;;;;;;;100.20;40.17;;;;;9.80;101405.00;;;;10425547;28;20226;-79
2021/11/14 06:19:09;;;;;;;92.47;39.87;;;;;9.80;101405.00;;;;10409307;28;20205;-79
2021/11/14 06:24:11;;;;;;;91.07;40.47;;;;;9.80;101406.00;;;;10388304;28;20211;-79
2021/11/14 06:29:13;;;;;;;99.37;39.57;;;;;9.80;101417.00;;;;10409850;28;20198;-80
2021/11/14 06:34:14;;;;;;;112.97;41.90;;;;;9.80;101410.00;;;;10441447;28;20217;-80
2021/11/14 06:39:16;;;;;;;106.37;39.03;;;;;9.80;101424.00;;;;10410489;28;20202;-79
2021/11/14 06:44:18;;;;;;;103.93;38.97;;;;;9.80;101431.00;;;;10424956;28;20206;-79
2021/11/14 06:49:20;;;;;;;107.20;41.20;;;;;9.80;101451.00;;;;10424682;28;20209;-80
2021/11/14 06:54:22;;;;;;;98.60;38.87;;;;;9.80;101455.00;;;;10424288;28;20194;-79
2021/11/14 06:59:25;;;;;;;99.90;39.67;;;;;9.80;101461.00;;;;10407503;28;20205;-79
2021/11/14 07:04:26;;;;;;;121.70;42.17;;;;;9.80;101463.00;;;;10441161;28;20597;-79
2021/11/14 07:09:29;;;;;;;103.97;41.30;;;;;9.80;101466.00;;;;10398822;28;20566;-79
2021/11/14 07:14:31;;;;;;;118.93;41.00;;;;;9.80;101481.00;;;;10406634;28;20198;-80
2021/11/14 07:19:33;;;;;;;121.10;45.10;;;;;9.80;101480.00;;;;10437726;28;20205;-80
2021/11/14 07:24:35;;;;;;;126.07;43.33;;;;;9.90;101484.00;;;;10407526;28;20309;-80
2021/11/14 07:29:37;;;;;;;120.80;43.93;;;;;9.90;101481.00;;;;10409112;28;20227;-79
2021/11/14 07:34:39;;;;;;;126.73;44.67;;;;;9.90;101496.00;;;;10409077;28;20213;-80
2021/11/14 07:39:41;;;;;;;122.67;43.33;;;;;10.00;101503.00;;;;10389783;28;20217;-80
2021/11/14 07:44:43;;;;;;;120.80;42.37;;;;;10.00;101514.00;;;;10421481;28;20210;-79
2021/11/14 07:49:45;;;;;;;126.10;44.50;;;;;10.00;101515.00;;;;10439394;28;20547;-80
2021/11/14 07:54:47;;;;;;;128.30;47.40;;;;;10.10;101521.00;;;;10390304;28;20198;-79
2021/11/14 07:59:49;;;;;;;124.33;43.10;;;;;10.00;101535.00;;;;10405322;28;20194;-79
2021/11/14 08:04:52;;;;;;;120.13;43.53;;;;;10.00;101542.00;;;;10412698;28;20221;-80
2021/11/14 08:09:54;;;;;;;125.47;45.40;;;;;10.10;101539.00;;;;10421512;28;20244;-79
2021/11/14 08:14:55;;;;;;;141.57;47.20;;;;;10.10;101550.00;;;;10390855;28;20200;-79
2021/11/14 08:20:00;;;;;;;131.90;45.33;;;;;10.10;101549.00;;;;10435091;28;20220;-79
2021/11/14 08:25:04;;;;;;;123.40;45.03;;;;;10.20;101556.00;;;;10422120;28;20203;-79
2021/11/14 08:30:10;;;;;;;115.80;44.20;;;;;10.20;101562.00;;;;10437624;28;20237;-79
2021/11/14 08:35:12;;;;;;;131.40;45.33;;;;;10.30;101571.00;;;;10421412;28;20201;-79
2021/11/14 08:40:15;;;;;;;135.37;46.27;;;;;10.30;101577.00;;;;10421586;28;20202;-79
2021/11/14 08:45:17;;;;;;;123.03;45.73;;;;;10.30;101574.00;;;;10405695;28;20214;-79
2021/11/14 08:50:20;;;;;;;122.13;44.57;;;;;10.20;101598.00;;;;10421852;28;20198;-79
2021/11/14 08:55:25;;;;;;;133.87;47.70;;;;;10.20;101593.00;;;;10422005;28;20245;-79
2021/11/14 09:00:31;;;;;;;127.50;45.60;;;;;10.30;101589.00;;;;10428633;28;20206;-79
2021/11/14 09:05:33;;;;;;;128.50;46.90;;;;;10.40;101608.00;;;;10412119;28;20215;-79
2021/11/14 09:10:41;;;;;;;109.77;45.63;;;;;10.60;101616.00;;;;10387205;28;20207;-79
2021/11/14 09:15:44;;;;;;;119.47;45.20;;;;;10.80;101625.00;;;;10394617;28;20190;-79
2021/11/14 09:20:48;;;;;;;116.43;45.03;;;;;10.90;101629.00;;;;10395613;28;20206;-79
2021/11/14 09:25:49;;;;;;;120.33;44.87;;;;;10.90;101632.00;;;;10427594;28;20222;-79
2021/11/14 09:30:52;;;;;;;120.03;44.37;;;;;10.90;101633.00;;;;10395281;28;20782;-79
2021/11/14 09:35:55;;;;;;;112.77;45.77;;;;;10.90;101638.00;;;;10426529;28;20194;-79
2021/11/14 09:41:02;;;;;;;105.50;42.77;;;;;10.90;101651.00;;;;10426023;28;20208;-79
2021/11/14 09:46:04;;;;;;;103.50;42.03;;;;;10.80;101657.00;;;;10437993;28;20621;-79
2021/11/14 09:51:06;;;;;;;105.90;43.07;;;;;10.70;101667.00;;;;10426340;28;20654;-79
2021/11/14 09:56:09;;;;;;;93.43;43.57;;;;;10.60;101667.00;;;;10409872;28;20237;-78
2021/11/14 10:01:11;;;;;;;89.27;39.73;;;;;10.70;101668.00;;;;10425549;28;20219;-78
2021/11/14 10:06:13;;;;;;;95.23;41.23;;;;;10.80;101669.00;;;;10425921;28;20206;-79
2021/11/14 10:11:15;;;;;;;87.33;39.20;;;;;10.90;101676.00;;;;10394722;28;20198;-79
2021/11/14 10:16:21;;;;;;;84.13;38.57;;;;;10.80;101689.00;;;;10424938;28;20241;-79
2021/11/14 10:21:31;;;;;;;92.00;40.10;;;;;10.70;101689.00;;;;10392016;28;20298;-79
2021/11/14 10:26:34;;;;;;;83.20;39.43;;;;;10.60;101688.00;;;;10424736;28;20217;-79
2021/11/14 10:31:39;;;;;;;90.27;42.57;;;;;10.60;101695.00;;;;10402116;28;20245;-78
2021/11/14 10:36:41;;;;;;;76.97;38.07;;;;;10.60;101692.00;;;;10423888;28;20198;-79
2021/11/14 10:41:47;;;;;;;79.53;39.57;;;;;10.70;101695.00;;;;10424283;28;20194;-79
2021/11/14 10:46:50;;;;;;;68.13;36.73;;;;;10.80;101705.00;;;;10443827;28;20224;-78
2021/11/14 10:51:59;;;;;;;66.43;35.87;;;;;10.90;101709.00;;;;10439809;28;20198;-79
2021/11/14 10:57:02;;;;;;;66.60;34.50;;;;;10.80;101709.00;;;;10411788;28;20198;-79
2021/11/14 11:02:06;;;;;;;52.43;29.43;;;;;10.80;101717.00;;;;10409491;28;20198;-79
2021/11/14 11:07:11;;;;;;;48.50;29.17;;;;;10.80;101712.00;;;;10421761;28;20260;-79
2021/11/14 11:12:17;;;;;;;45.00;26.33;;;;;10.70;101719.00;;;;10436420;28;20203;-79
2021/11/14 11:17:18;;;;;;;51.83;27.90;;;;;10.60;101721.00;;;;10435987;28;20665;-78
2021/11/14 11:22:22;;;;;;;50.13;28.13;;;;;10.50;101726.00;;;;10422982;28;20216;-78
2021/11/14 11:27:24;;;;;;;47.30;27.53;;;;;10.50;101727.00;;;;10406801;28;20218;-78
2021/11/14 11:32:26;;;;;;;49.57;27.67;;;;;10.80;101727.00;;;;10413146;28;20237;-78
2021/11/14 11:37:27;;;;;;;44.80;26.77;;;;;10.90;101726.00;;;;10426087;28;20205;-78
2021/11/14 11:42:29;;;;;;;42.97;26.80;;;;;11.10;101716.00;;;;10410417;28;20253;-78
2021/11/14 11:47:38;;;;;;;44.40;27.83;;;;;11.30;101710.00;;;;10439267;28;20253;-79
2021/11/14 11:52:44;;;;;;;46.20;28.13;;;;;11.50;101716.00;;;;10420312;28;20253;-79
2021/11/14 11:57:45;;;;;;;43.17;27.40;;;;;11.60;101722.00;;;;10421958;28;20344;-78
2021/11/14 12:02:49;;;;;;;42.93;27.00;;;;;11.70;101728.00;;;;10426094;28;20198;-78
2021/11/14 12:07:53;;;;;;;43.47;28.20;;;;;11.60;101728.00;;;;10439068;28;20206;-78
2021/11/14 12:13:03;;;;;;;42.13;27.03;;;;;11.70;101728.00;;;;10405880;28;20208;-78
2021/11/14 12:18:12;;;;;;;48.37;31.40;;;;;12.00;101729.00;;;;10413732;28;20259;-78
2021/11/14 12:23:30;;;;;;;42.43;27.63;;;;;12.00;101736.00;;;;10384032;28;20203;-79
2021/11/14 12:28:32;;;;;;;40.17;26.27;;;;;11.80;101736.00;;;;10421467;28;20260;-79
2021/11/14 12:33:46;;;;;;;44.70;28.30;;;;;11.80;101739.00;;;;10419186;28;20226;-78
2021/11/14 12:38:49;;;;;;;45.87;27.93;;;;;11.50;101750.00;;;;10445841;28;20222;-79
2021/11/14 12:43:50;;;;;;;44.70;27.20;;;;;11.30;101741.00;;;;10424004;28;20229;-78
2021/11/14 12:48:54;;;;;;;42.40;26.67;;;;;11.20;101747.00;;;;10433159;28;20218;-78
2021/11/14 12:54:02;;;;;;;50.47;27.47;;;;;11.10;101752.00;;;;10441557;28;20199;-78
2021/11/14 12:59:18;;;;;;;41.47;24.33;;;;;11.00;101749.00;;;;10424399;28;20195;-78
2021/11/14 13:04:38;;;;;;;44.63;26.47;;;;;10.90;101755.00;;;;10440618;28;20613;-78
2021/11/14 13:09:45;;;;;;;40.13;26.27;;;;;10.80;101760.00;;;;10457440;28;20269;-78
2021/11/14 13:15:02;;;;;;;46.87;27.50;;;;;10.60;101755.00;;;;10408709;28;20808;-78
2021/11/14 13:20:05;;;;;;;50.30;27.33;;;;;10.60;101761.00;;;;10408915;28;20198;-79
2021/11/14 13:25:08;;;;;;;48.03;28.13;;;;;10.50;101761.00;;;;10440000;28;20194;-78
2021/11/14 13:30:10;;;;;;;46.27;28.27;;;;;10.40;101767.00;;;;10407463;28;20280;-78
2021/11/14 13:35:12;;;;;;;47.50;28.97;;;;;10.40;101763.00;;;;10433941;28;20657;-78
2021/11/14 13:40:21;;;;;;;48.47;27.93;;;;;10.40;101761.00;;;;10399996;28;20573;-79
2021/11/14 13:45:24;;;;;;;49.17;27.23;;;;;10.60;101756.00;;;;10394509;28;20210;-79
2021/11/14 13:50:34;;;;;;;48.60;29.30;;;;;10.80;101763.00;;;;10420434;28;20195;-78
2021/11/14 13:55:49;;;;;;;49.63;28.23;;;;;10.90;101758.00;;;;10417539;28;20912;-78
2021/11/14 14:00:53;;;;;;;52.37;27.83;;;;;10.80;101761.00;;;;10406958;28;20654;-79
2021/11/14 14:05:55;;;;;;;49.30;28.20;;;;;10.70;101764.00;;;;10439583;28;20214;-78
2021/11/14 14:11:00;;;;;;;48.57;27.27;;;;;10.70;101768.00;;;;10391072;28;20226;-79
2021/11/14 14:16:05;;;;;;;56.33;29.47;;;;;10.70;101771.00;;;;10407052;28;20565;-78
2021/11/14 14:21:07;;;;;;;52.23;29.07;;;;;10.70;101781.00;;;;10405991;28;20198;-78
2021/11/14 14:26:20;;;;;;;51.30;30.57;;;;;10.60;101789.00;;;;10409061;28;20214;-79
2021/11/14 14:31:27;;;;;;;56.43;31.30;;;;;10.60;101784.00;;;;10420525;28;20238;-78
2021/11/14 14:36:31;;;;;;;53.30;30.37;;;;;10.50;101792.00;;;;10423104;28;20226;-78
2021/11/14 14:41:34;;;;;;;47.23;27.30;;;;;10.40;101796.00;;;;10419778;28;20209;-78
2021/11/14 14:46:38;;;;;;;50.10;26.23;;;;;10.30;101800.00;;;;10404893;28;20214;-78
2021/11/14 14:51:43;;;;;;;49.47;28.87;;;;;10.30;101803.00;;;;10392067;28;20278;-78
2021/11/14 14:56:48;;;;;;;51.13;28.07;;;;;10.20;101810.00;;;;10393727;28;20203;-78
2021/11/14 15:01:57;;;;;;;49.90;28.37;;;;;10.10;101806.00;;;;10419051;28;20256;-78
2021/11/14 15:07:03;;;;;;;55.37;31.43;;;;;10.00;101810.00;;;;10420281;28;20214;-78
2021/11/14 15:12:05;;;;;;;57.33;28.97;;;;;9.90;101822.00;;;;10421120;28;20210;-78
2021/11/14 15:17:17;;;;;;;56.53;28.63;;;;;9.80;101823.00;;;;10404975;28;20222;-78
2021/11/14 15:22:19;;;;;;;50.57;27.37;;;;;9.70;101830.00;;;;10400301;28;20684;-79
2021/11/14 15:27:23;;;;;;;58.07;30.07;;;;;9.70;101838.00;;;;10403842;28;20569;-78
2021/11/14 15:32:25;;;;;;;48.23;27.03;;;;;9.60;101839.00;;;;10419992;28;20748;-79
2021/11/14 15:37:27;;;;;;;47.43;25.10;;;;;9.60;101834.00;;;;10400825;28;20198;-79
2021/11/14 15:42:29;;;;;;;56.93;31.47;;;;;9.50;101847.00;;;;10388445;28;20571;-78
2021/11/14 15:47:31;;;;;;;52.70;25.73;;;;;9.50;101855.00;;;;10392567;28;20261;-78
2021/11/14 15:52:34;;;;;;;48.63;27.50;;;;;9.50;101857.00;;;;10402845;28;20217;-78
2021/11/14 15:57:36;;;;;;;47.93;25.80;;;;;9.40;101860.00;;;;10410885;28;20256;-79
2021/11/14 16:02:38;;;;;;;50.13;26.77;;;;;9.40;101870.00;;;;10388077;28;20565;-79
2021/11/14 16:07:41;;;;;;;52.00;27.63;;;;;9.40;101872.00;;;;10383780;28;20237;-79
2021/11/14 16:12:46;;;;;;;48.73;27.10;;;;;9.40;101886.00;;;;10397223;28;20198;-79
2021/11/14 16:17:48;;;;;;;48.00;26.97;;;;;9.30;101889.00;;;;10397205;28;20194;-78
2021/11/14 16:22:52;;;;;;;44.13;25.87;;;;;9.30;101895.00;;;;10425835;28;20225;-78
2021/11/14 16:27:54;;;;;;;44.93;25.53;;;;;9.30;101900.00;;;;10426168;28;20710;-79
2021/11/14 16:32:59;;;;;;;47.53;27.60;;;;;9.30;101900.00;;;;10419797;28;20238;-78
2021/11/14 16:38:05;;;;;;;42.10;26.73;;;;;9.30;101904.00;;;;10378015;28;21614;-78
2021/11/14 16:43:07;;;;;;;47.90;27.47;;;;;9.30;101909.00;;;;10431538;28;20289;-78
2021/11/14 16:48:09;;;;;;;46.60;28.27;;;;;9.30;101917.00;;;;10422515;28;20202;-79
2021/11/14 16:53:11;;;;;;;41.37;25.33;;;;;9.20;101918.00;;;;10439071;28;20214;-78
2021/11/14 16:58:21;;;;;;;34.77;21.90;;;;;9.20;101919.00;;;;10419103;28;20199;-78
2021/11/14 17:03:24;;;;;;;28.10;19.43;;;;;9.20;101932.00;;;;10407274;28;20688;-78
2021/11/14 17:08:40;;;;;;;28.80;18.20;;;;;9.20;101933.00;;;;10414694;28;20584;-78
2021/11/14 17:14:03;;;;;;;21.40;15.83;;;;;9.10;101941.00;;;;10394391;28;20190;-78
2021/11/14 17:19:05;;;;;;;19.13;14.13;;;;;9.10;101952.00;;;;10406373;28;20199;-78
2021/11/14 17:24:09;;;;;;;18.33;13.10;;;;;9.10;101946.00;;;;10384663;28;20276;-78
2021/11/14 17:29:11;;;;;;;21.80;15.07;;;;;9.10;101954.00;;;;10414981;28;20210;-78
2021/11/14 17:34:15;;;;;;;19.00;14.60;;;;;9.10;101966.00;;;;10424811;28;20264;-78
2021/11/14 17:39:18;;;;;;;17.97;13.27;;;;;9.10;101968.00;;;;10417053;28;20195;-78
2021/11/14 17:44:20;;;;;;;17.27;13.50;;;;;9.10;101964.00;;;;10387190;28;20191;-79
2021/11/14 17:49:23;;;;;;;18.60;13.50;;;;;9.10;101956.00;;;;10393594;28;20257;-78
2021/11/14 17:54:25;;;;;;;19.60;14.97;;;;;9.10;101970.00;;;;10399625;28;20230;-78
2021/11/14 17:59:28;;;;;;;22.50;16.87;;;;;9.10;101970.00;;;;10401812;28;20195;-78
2021/11/14 18:04:34;;;;;;;21.47;16.30;;;;;9.10;101971.00;;;;10417045;28;20198;-78
2021/11/14 18:09:36;;;;;;;21.67;16.20;;;;;9.00;101979.00;;;;10421792;28;20616;-78
2021/11/14 18:14:38;;;;;;;21.30;16.70;;;;;9.00;101982.00;;;;10405963;28;20253;-78
2021/11/14 18:19:40;;;;;;;24.17;18.47;;;;;9.00;101994.00;;;;10395269;28;20669;-79
2021/11/14 18:24:42;;;;;;;25.83;18.40;;;;;9.00;101999.00;;;;10390614;28;20210;-79
2021/11/14 18:29:45;;;;;;;28.77;19.80;;;;;8.90;101989.00;;;;10396049;28;20218;-78
2021/11/14 18:34:47;;;;;;;28.40;20.47;;;;;8.90;101995.00;;;;10400740;28;20199;-78
2021/11/14 18:39:50;;;;;;;29.23;21.10;;;;;8.90;102000.00;;;;10408419;28;20203;-78
2021/11/14 18:44:51;;;;;;;32.00;23.07;;;;;8.80;102007.00;;;;10385836;28;20194;-78
2021/11/14 18:49:53;;;;;;;34.37;23.83;;;;;8.80;102001.00;;;;10404943;28;20210;-78
2021/11/14 18:54:55;;;;;;;38.37;25.83;;;;;8.70;102007.00;;;;10427136;28;20263;-78
2021/11/14 18:59:57;;;;;;;41.03;27.47;;;;;8.40;102011.00;;;;10419566;28;20202;-78
2021/11/14 19:05:01;;;;;;;38.43;26.10;;;;;8.20;102022.00;;;;10404417;28;20198;-78
2021/11/14 19:10:05;;;;;;;42.40;26.73;;;;;8.10;102025.00;;;;10409049;28;20214;-78
2021/11/14 19:15:09;;;;;;;45.37;28.50;;;;;7.90;102034.00;;;;10403444;28;20202;-78
2021/11/14 19:20:15;;;;;;;41.47;27.33;;;;;7.70;102031.00;;;;10381229;28;20190;-78
2021/11/14 19:25:19;;;;;;;46.53;29.97;;;;;7.50;102023.00;;;;10404328;28;20202;-78
2021/11/14 19:30:24;;;;;;;45.17;28.20;;;;;7.40;102029.00;;;;10405250;28;20285;-78
2021/11/14 19:35:27;;;;;;;49.00;31.13;;;;;7.20;102015.00;;;;10402660;28;20195;-78
2021/11/14 19:40:30;;;;;;;51.37;31.57;;;;;7.20;102015.00;;;;10403974;28;20191;-79
2021/11/14 19:45:32;;;;;;;52.97;32.80;;;;;7.10;102011.00;;;;10403109;28;20657;-78
2021/11/14 19:50:37;;;;;;;59.73;34.07;;;;;7.00;102018.00;;;;10380508;28;20221;-78
2021/11/14 19:55:39;;;;;;;57.87;35.00;;;;;6.90;102010.00;;;;10396546;28;20194;-79
2021/11/14 20:00:42;;;;;;;54.30;34.40;;;;;6.80;102020.00;;;;10416287;28;20202;-78
2021/11/14 20:05:44;;;;;;;57.37;35.97;;;;;6.70;102011.00;;;;10402123;28;20294;-77
2021/11/14 20:10:46;;;;;;;64.33;37.40;;;;;6.60;102019.00;;;;10433224;28;20214;-78
2021/11/14 20:15:53;;;;;;;61.20;35.93;;;;;6.50;102020.00;;;;10385050;28;20570;-78
2021/11/14 20:21:02;;;;;;;63.40;36.83;;;;;6.40;102033.00;;;;10376439;28;20689;-79
2021/11/14 20:26:04;;;;;;;65.67;38.60;;;;;6.30;102025.00;;;;10398431;28;20194;-78
2021/11/14 20:31:06;;;;;;;71.33;41.07;;;;;6.30;102033.00;;;;10397589;28;20237;-78
2021/11/14 20:36:08;;;;;;;68.70;39.30;;;;;6.30;102035.00;;;;10387263;28;20705;-78
2021/11/14 20:41:11;;;;;;;64.17;38.00;;;;;6.20;102027.00;;;;10415819;28;20202;-78
2021/11/14 20:46:13;;;;;;;69.60;38.70;;;;;6.10;102030.00;;;;10416603;28;20282;-78
2021/11/14 20:51:18;;;;;;;72.67;40.33;;;;;6.00;102038.00;;;;10434274;28;20214;-78
2021/11/14 20:56:20;;;;;;;64.47;38.07;;;;;5.90;102039.00;;;;10415286;28;20186;-78
2021/11/14 21:01:22;;;;;;;61.27;36.80;;;;;5.80;102043.00;;;;10425822;28;20222;-78
2021/11/14 21:06:24;;;;;;;60.13;35.40;;;;;5.70;102048.00;;;;10419572;28;20222;-78
2021/11/14 21:11:26;;;;;;;66.83;39.90;;;;;5.60;102059.00;;;;10403562;28;20250;-78
2021/11/14 21:16:28;;;;;;;59.83;36.73;;;;;5.60;102063.00;;;;10396255;28;20209;-78
2021/11/14 21:21:31;;;;;;;66.80;38.30;;;;;5.60;102056.00;;;;10435753;28;20198;-79
2021/11/14 21:26:33;;;;;;;63.53;39.10;;;;;5.50;102056.00;;;;10388364;28;20206;-78
2021/11/14 21:31:35;;;;;;;62.07;36.17;;;;;5.40;102061.00;;;;10418271;28;20238;-79
2021/11/14 21:41:58;;;;;;;68.50;37.73;;;;;5.30;102059.00;;;;10440178;28;20210;-78
2021/11/14 21:47:02;;;;;;;69.47;38.80;;;;;5.30;102051.00;;;;10418369;28;20241;-78
2021/11/14 21:52:05;;;;;;;71.03;39.70;;;;;5.30;102055.00;;;;10416114;28;20206;-79
2021/11/14 21:57:07;;;;;;;60.87;36.33;;;;;5.20;102056.00;;;;10417496;28;20202;-79
2021/11/14 22:02:10;;;;;;;67.63;36.70;;;;;5.20;102061.00;;;;10420342;28;20260;-78
2021/11/14 22:07:13;;;;;;;65.00;36.53;;;;;5.10;102064.00;;;;10406262;28;20293;-78
2021/11/14 22:12:15;;;;;;;65.90;34.17;;;;;5.10;102051.00;;;;10422835;28;20252;-78
2021/11/14 22:17:17;;;;;;;66.50;35.40;;;;;5.00;102052.00;;;;10416487;28;20206;-78
2021/11/14 22:22:19;;;;;;;61.77;32.40;;;;;4.90;102060.00;;;;10405606;28;20549;-78
2021/11/14 22:27:20;;;;;;;61.73;33.33;;;;;4.80;102050.00;;;;10415749;28;20222;-78
2021/11/14 22:32:23;;;;;;;57.70;33.40;;;;;4.80;102047.00;;;;10421626;28;20222;-78
2021/11/14 22:37:25;;;;;;;65.90;33.47;;;;;4.70;102045.00;;;;10389542;28;20217;-77
2021/11/14 22:42:28;;;;;;;65.27;34.60;;;;;4.70;102045.00;;;;10405913;28;20265;-78
2021/11/14 22:47:30;;;;;;;66.93;34.20;;;;;4.70;102049.00;;;;10419794;28;20231;-78
2021/11/14 22:52:32;;;;;;;67.70;35.73;;;;;4.60;102049.00;;;;10407177;28;20199;-78
2021/11/14 22:57:34;;;;;;;67.33;34.70;;;;;4.60;102046.00;;;;10421780;28;20210;-78
2021/11/14 23:02:36;;;;;;;68.00;34.03;;;;;4.60;102052.00;;;;10391886;28;20198;-78
2021/11/14 23:07:39;;;;;;;67.00;36.37;;;;;4.50;102049.00;;;;10405534;28;20257;-78
2021/11/14 23:12:42;;;;;;;59.37;34.07;;;;;4.40;102052.00;;;;10423224;28;20202;-78
2021/11/14 23:17:45;;;;;;;64.37;34.90;;;;;4.40;102057.00;;;;10404928;28;20680;-78
2021/11/14 23:22:48;;;;;;;69.57;36.00;;;;;4.30;102059.00;;;;10379829;28;20245;-77
2021/11/14 23:27:50;;;;;;;67.23;37.57;;;;;4.30;102058.00;;;;10390837;28;20210;-78
2021/11/14 23:32:52;;;;;;;67.37;36.70;;;;;4.40;102063.00;;;;10412275;28;20234;-77
2021/11/14 23:37:56;;;;;;;77.07;37.17;;;;;4.40;102056.00;;;;10406738;28;20645;-78
2021/11/14 23:43:13;;;;;;;73.50;37.50;;;;;4.40;102051.00;;;;10438819;28;20198;-78
2021/11/14 23:48:16;;;;;;;86.57;40.13;;;;;4.30;102048.00;;;;10422879;28;20264;-78
2021/11/14 23:53:19;;;;;;;76.63;39.10;;;;;4.30;102044.00;;;;10381976;28;20205;-78
2021/11/14 23:58:22;;;;;;;75.90;38.10;;;;;4.30;102052.00;;;;10437946;28;20199;-77
